Industrial Hedland — 4RBJ — position and weather

sailwx.info

Track history (hours):
 
Tides and Currents Weather Stations Pressure Air Temp Water Temp Dewpoint Dewpoint Depression Visibility Wind Speed Wind Dir Waves Ship Positions

Industrial Hedland

Last reported at 2017-Oct-16 02:07 UTC. Time now 2017-Oct-22 06:40 UTC.
Position S 19°26' E 116°52'.

Length 118 m; draft 4.3 m.

Type: Cargo ship. MMSI: 417222323.

Date/timePositionNaut miles runAvg speedWind from/ knotsBaromVisibWave heightAir tempDewpointWater temp
2017-Oct-16 02:07S 19°26' E 116°52'215.0
2017-Oct-16 02:00S 19°27' E 116°52'4814.4
2017-Oct-15 22:42S 20°15' E 116°46'314.7
2017-Oct-15 22:29S 20°17' E 116°45'814.6
2017-Oct-15 21:57S 20°25' E 116°44'511.1
2017-Oct-15 21:30S 20°30' E 116°44'7 0.5
2017-Oct-15 08:54S 20°37' E 116°45'3 0.1
2017-Oct-13 07:36S 20°35' E 116°43'212.3
2017-Oct-13 07:26S 20°33' E 116°44'811.1
2017-Oct-13 06:45S 20°25' E 116°44'414.1
2017-Oct-13 06:30S 20°22' E 116°44'713.5
2017-Oct-13 06:01S 20°15' E 116°46'713.3
2017-Oct-13 05:31S 20°09' E 116°47'713.5
2017-Oct-13 05:00S 20°02' E 116°49'713.6
2017-Oct-13 04:31S 19°56' E 116°51'  
2017-Oct-08 07:27N 01°14' E 103°47'10 1.4
2017-Oct-08 00:11N 01°14' E 103°57'213.3
2017-Oct-08 00:00N 01°12' E 103°55'611.9
2017-Oct-07 23:30N 01°12' E 103°49'510.3
2017-Oct-07 23:00N 01°16' E 103°46'4 7.6
2017-Oct-07 22:30N 01°18' E 103°43'0 0.1
2017-Oct-07 21:59N 01°19' E 103°43'0 0.0
2017-Oct-07 21:30N 01°19' E 103°43'0 0.0
2017-Oct-07 20:59N 01°19' E 103°43'0 0.0
2017-Oct-07 20:30N 01°19' E 103°43'0 0.0
2017-Oct-07 20:00N 01°19' E 103°43'0 0.0
2017-Oct-07 19:30N 01°19' E 103°43'0 0.0
2017-Oct-07 18:57N 01°19' E 103°43'0 0.0
2017-Oct-07 18:30N 01°19' E 103°43'0 0.0
2017-Oct-07 17:57N 01°19' E 103°43'0 0.0
2017-Oct-07 17:27N 01°19' E 103°43'0 0.0
2017-Oct-07 16:57N 01°19' E 103°43'0 0.0
2017-Oct-07 16:30N 01°19' E 103°43'0 0.0
2017-Oct-07 15:57N 01°18' E 103°43'0 0.0
2017-Oct-07 15:30N 01°19' E 103°43'0 0.0
2017-Oct-07 14:57N 01°19' E 103°43'0 0.0
2017-Oct-07 14:30N 01°19' E 103°43'0 0.0
2017-Oct-07 13:51N 01°19' E 103°43'0 0.0
2017-Oct-07 13:30N 01°19' E 103°43'0 0.0
2017-Oct-07 12:57N 01°19' E 103°43'0 0.0
2017-Oct-07 12:30N 01°19' E 103°43'0 0.0
2017-Oct-07 11:57N 01°19' E 103°43'0 0.0
2017-Oct-07 11:30N 01°19' E 103°43'0 0.0
2017-Oct-07 10:51N 01°19' E 103°43'0 0.0
2017-Oct-07 10:30N 01°19' E 103°43'0 0.0
2017-Oct-07 09:57N 01°19' E 103°43'0 0.0
2017-Oct-07 09:30N 01°19' E 103°43'0 0.0
2017-Oct-07 08:57N 01°19' E 103°43'0 0.0
2017-Oct-07 08:30N 01°19' E 103°43'0 0.0
2017-Oct-07 07:57N 01°19' E 103°43'0 0.0
2017-Oct-07 07:30N 01°19' E 103°43'0 0.0
2017-Oct-07 07:01N 01°19' E 103°43'0 0.0
2017-Oct-07 06:30N 01°19' E 103°43'0 0.0
2017-Oct-07 05:57N 01°19' E 103°43'0 0.0
2017-Oct-07 05:30N 01°19' E 103°43'0 0.0
2017-Oct-07 04:57N 01°19' E 103°43'0 0.0
2017-Oct-07 04:30N 01°19' E 103°43'0 0.0
2017-Oct-07 03:57N 01°19' E 103°43'0 0.0
2017-Oct-07 03:30N 01°19' E 103°43'0 0.0
2017-Oct-07 02:54N 01°19' E 103°43'0 0.0
2017-Oct-07 02:30N 01°19' E 103°43'0 0.0
2017-Oct-07 01:57N 01°19' E 103°43'0 0.0
2017-Oct-07 01:30N 01°19' E 103°43'0 0.0
2017-Oct-07 00:57N 01°19' E 103°43'0 0.0
2017-Oct-07 00:30N 01°19' E 103°43'0 0.0
2017-Oct-07 00:01N 01°19' E 103°43'0 0.0
2017-Oct-06 23:30N 01°19' E 103°43'0 0.0
2017-Oct-06 22:57N 01°19' E 103°43'0 0.0
2017-Oct-06 22:30N 01°19' E 103°43'0 0.0
2017-Oct-06 22:01N 01°19' E 103°43'0 0.0
2017-Oct-06 21:27N 01°19' E 103°43'0 0.0
2017-Oct-06 20:54N 01°19' E 103°43'0 0.0
2017-Oct-06 20:24N 01°19' E 103°43'0 0.0
2017-Oct-06 19:57N 01°19' E 103°43'0 0.0
2017-Oct-06 19:30N 01°19' E 103°43'0 0.0
2017-Oct-06 19:01N 01°19' E 103°43'0 0.0
2017-Oct-06 18:30N 01°19' E 103°43'0 0.0
2017-Oct-06 17:57N 01°19' E 103°43'0 0.0
2017-Oct-06 17:30N 01°19' E 103°43'0 0.0
2017-Oct-06 16:57N 01°19' E 103°43'0 0.0
2017-Oct-06 16:30N 01°19' E 103°43'0 0.0
2017-Oct-06 15:57N 01°19' E 103°43'0 0.0
2017-Oct-06 15:27N 01°19' E 103°43'0 0.0
2017-Oct-06 14:57N 01°19' E 103°43'0 0.0
2017-Oct-06 14:27N 01°19' E 103°43'0 0.0
2017-Oct-06 13:57N 01°19' E 103°43'0 0.0
2017-Oct-06 13:30N 01°19' E 103°43'0 0.0
2017-Oct-06 12:54N 01°19' E 103°43'0 0.0
2017-Oct-06 12:30N 01°19' E 103°43'0 0.0
2017-Oct-06 11:57N 01°19' E 103°43'0 0.0
2017-Oct-06 11:27N 01°19' E 103°43'0 0.0
2017-Oct-06 10:57N 01°19' E 103°43'0 0.0
2017-Oct-06 10:30N 01°19' E 103°43'0 0.0
2017-Oct-06 09:57N 01°19' E 103°43'0 0.0
2017-Oct-06 09:27N 01°19' E 103°43'0 0.0
2017-Oct-06 09:00N 01°19' E 103°43'0 0.0
2017-Oct-06 08:30N 01°19' E 103°43'0 0.0
2017-Oct-06 08:00N 01°19' E 103°43'0 0.0
2017-Oct-06 07:30N 01°19' E 103°43'0 0.0
2017-Oct-06 07:00N 01°19' E 103°43'0 0.0
2017-Oct-06 06:27N 01°19' E 103°43'0 0.0
2017-Oct-06 06:00N 01°19' E 103°43'0 0.0
2017-Oct-06 05:30N 01°19' E 103°43'0 0.0
2017-Oct-06 05:00N 01°19' E 103°43'0 0.0
2017-Oct-06 04:30N 01°19' E 103°43'0 0.0
2017-Oct-06 03:57N 01°19' E 103°43'0 0.0
2017-Oct-06 03:30N 01°19' E 103°43'0 0.0
2017-Oct-06 03:00N 01°19' E 103°43'0 0.0
2017-Oct-06 02:30N 01°19' E 103°43'  
Track history (hours):
 
Tides and Currents Weather Stations Pressure Air Temp Water Temp Dewpoint Dewpoint Depression Visibility Wind Speed Wind Dir Waves Ship Positions

Industrial Hedland

Last reported at 2017-Oct-16 02:07 UTC. Time now 2017-Oct-22 06:40 UTC.
Position S 19°26' E 116°52'.

Length 118 m; draft 4.3 m.

Type: Cargo ship. MMSI: 417222323.

Date/timePositionNaut miles runAvg speedWind from/ knotsBaromVisibWave heightAir tempDewpointWater temp
2017-Oct-16 02:07S 19°26' E 116°52'215.0
2017-Oct-16 02:00S 19°27' E 116°52'4814.4
2017-Oct-15 22:42S 20°15' E 116°46'314.7
2017-Oct-15 22:29S 20°17' E 116°45'814.6
2017-Oct-15 21:57S 20°25' E 116°44'511.1
2017-Oct-15 21:30S 20°30' E 116°44'7 0.5
2017-Oct-15 08:54S 20°37' E 116°45'3 0.1
2017-Oct-13 07:36S 20°35' E 116°43'212.3
2017-Oct-13 07:26S 20°33' E 116°44'811.1
2017-Oct-13 06:45S 20°25' E 116°44'414.1
2017-Oct-13 06:30S 20°22' E 116°44'713.5
2017-Oct-13 06:01S 20°15' E 116°46'713.3
2017-Oct-13 05:31S 20°09' E 116°47'713.5
2017-Oct-13 05:00S 20°02' E 116°49'713.6
2017-Oct-13 04:31S 19°56' E 116°51'  
2017-Oct-08 07:27N 01°14' E 103°47'10 1.4
2017-Oct-08 00:11N 01°14' E 103°57'213.3
2017-Oct-08 00:00N 01°12' E 103°55'611.9
2017-Oct-07 23:30N 01°12' E 103°49'510.3
2017-Oct-07 23:00N 01°16' E 103°46'4 7.6
2017-Oct-07 22:30N 01°18' E 103°43'0 0.1
2017-Oct-07 21:59N 01°19' E 103°43'0 0.0
2017-Oct-07 21:30N 01°19' E 103°43'0 0.0
2017-Oct-07 20:59N 01°19' E 103°43'0 0.0
2017-Oct-07 20:30N 01°19' E 103°43'0 0.0
2017-Oct-07 20:00N 01°19' E 103°43'0 0.0
2017-Oct-07 19:30N 01°19' E 103°43'0 0.0
2017-Oct-07 18:57N 01°19' E 103°43'0 0.0
2017-Oct-07 18:30N 01°19' E 103°43'0 0.0
2017-Oct-07 17:57N 01°19' E 103°43'0 0.0
2017-Oct-07 17:27N 01°19' E 103°43'0 0.0
2017-Oct-07 16:57N 01°19' E 103°43'0 0.0
2017-Oct-07 16:30N 01°19' E 103°43'0 0.0
2017-Oct-07 15:57N 01°18' E 103°43'0 0.0
2017-Oct-07 15:30N 01°19' E 103°43'0 0.0
2017-Oct-07 14:57N 01°19' E 103°43'0 0.0
2017-Oct-07 14:30N 01°19' E 103°43'0 0.0
2017-Oct-07 13:51N 01°19' E 103°43'0 0.0
2017-Oct-07 13:30N 01°19' E 103°43'0 0.0
2017-Oct-07 12:57N 01°19' E 103°43'0 0.0
2017-Oct-07 12:30N 01°19' E 103°43'0 0.0
2017-Oct-07 11:57N 01°19' E 103°43'0 0.0
2017-Oct-07 11:30N 01°19' E 103°43'0 0.0
2017-Oct-07 10:51N 01°19' E 103°43'0 0.0
2017-Oct-07 10:30N 01°19' E 103°43'0 0.0
2017-Oct-07 09:57N 01°19' E 103°43'0 0.0
2017-Oct-07 09:30N 01°19' E 103°43'0 0.0
2017-Oct-07 08:57N 01°19' E 103°43'0 0.0
2017-Oct-07 08:30N 01°19' E 103°43'0 0.0
2017-Oct-07 07:57N 01°19' E 103°43'0 0.0
2017-Oct-07 07:30N 01°19' E 103°43'0 0.0
2017-Oct-07 07:01N 01°19' E 103°43'0 0.0
2017-Oct-07 06:30N 01°19' E 103°43'0 0.0
2017-Oct-07 05:57N 01°19' E 103°43'0 0.0
2017-Oct-07 05:30N 01°19' E 103°43'0 0.0
2017-Oct-07 04:57N 01°19' E 103°43'0 0.0
2017-Oct-07 04:30N 01°19' E 103°43'0 0.0
2017-Oct-07 03:57N 01°19' E 103°43'0 0.0
2017-Oct-07 03:30N 01°19' E 103°43'0 0.0
2017-Oct-07 02:54N 01°19' E 103°43'0 0.0
2017-Oct-07 02:30N 01°19' E 103°43'0 0.0
2017-Oct-07 01:57N 01°19' E 103°43'0 0.0
2017-Oct-07 01:30N 01°19' E 103°43'0 0.0
2017-Oct-07 00:57N 01°19' E 103°43'0 0.0
2017-Oct-07 00:30N 01°19' E 103°43'0 0.0
2017-Oct-07 00:01N 01°19' E 103°43'0 0.0
2017-Oct-06 23:30N 01°19' E 103°43'0 0.0
2017-Oct-06 22:57N 01°19' E 103°43'0 0.0
2017-Oct-06 22:30N 01°19' E 103°43'0 0.0
2017-Oct-06 22:01N 01°19' E 103°43'0 0.0
2017-Oct-06 21:27N 01°19' E 103°43'0 0.0
2017-Oct-06 20:54N 01°19' E 103°43'0 0.0
2017-Oct-06 20:24N 01°19' E 103°43'0 0.0
2017-Oct-06 19:57N 01°19' E 103°43'0 0.0
2017-Oct-06 19:30N 01°19' E 103°43'0 0.0
2017-Oct-06 19:01N 01°19' E 103°43'0 0.0
2017-Oct-06 18:30N 01°19' E 103°43'0 0.0
2017-Oct-06 17:57N 01°19' E 103°43'0 0.0
2017-Oct-06 17:30N 01°19' E 103°43'0 0.0
2017-Oct-06 16:57N 01°19' E 103°43'0 0.0
2017-Oct-06 16:30N 01°19' E 103°43'0 0.0
2017-Oct-06 15:57N 01°19' E 103°43'0 0.0
2017-Oct-06 15:27N 01°19' E 103°43'0 0.0
2017-Oct-06 14:57N 01°19' E 103°43'0 0.0
2017-Oct-06 14:27N 01°19' E 103°43'0 0.0
2017-Oct-06 13:57N 01°19' E 103°43'0 0.0
2017-Oct-06 13:30N 01°19' E 103°43'0 0.0
2017-Oct-06 12:54N 01°19' E 103°43'0 0.0
2017-Oct-06 12:30N 01°19' E 103°43'0 0.0
2017-Oct-06 11:57N 01°19' E 103°43'0 0.0
2017-Oct-06 11:27N 01°19' E 103°43'0 0.0
2017-Oct-06 10:57N 01°19' E 103°43'0 0.0
2017-Oct-06 10:30N 01°19' E 103°43'0 0.0
2017-Oct-06 09:57N 01°19' E 103°43'0 0.0
2017-Oct-06 09:27N 01°19' E 103°43'0 0.0
2017-Oct-06 09:00N 01°19' E 103°43'0 0.0
2017-Oct-06 08:30N 01°19' E 103°43'0 0.0
2017-Oct-06 08:00N 01°19' E 103°43'0 0.0
2017-Oct-06 07:30N 01°19' E 103°43'0 0.0
2017-Oct-06 07:00N 01°19' E 103°43'0 0.0
2017-Oct-06 06:27N 01°19' E 103°43'0 0.0
2017-Oct-06 06:00N 01°19' E 103°43'0 0.0
2017-Oct-06 05:30N 01°19' E 103°43'0 0.0
2017-Oct-06 05:00N 01°19' E 103°43'0 0.0
2017-Oct-06 04:30N 01°19' E 103°43'0 0.0
2017-Oct-06 03:57N 01°19' E 103°43'0 0.0
2017-Oct-06 03:30N 01°19' E 103°43'0 0.0
2017-Oct-06 03:00N 01°19' E 103°43'0 0.0
2017-Oct-06 02:30N 01°19' E 103°43'  

Dump ship's entire track history